sensor_id;sensor_type;location;lat;lon;timestamp;P1;durP1;ratioP1;P2;durP2;ratioP2
8183;SDS011;4133;48.752;9.088;2022-08-26T00:01:19;4.55;;;4.15;;
8183;SDS011;4133;48.752;9.088;2022-08-26T00:03:45;4.88;;;4.38;;
8183;SDS011;4133;48.752;9.088;2022-08-26T00:06:11;4.90;;;3.97;;
8183;SDS011;4133;48.752;9.088;2022-08-26T00:08:38;3.83;;;3.53;;
8183;SDS011;4133;48.752;9.088;2022-08-26T00:11:04;4.72;;;4.30;;
8183;SDS011;4133;48.752;9.088;2022-08-26T00:13:30;5.15;;;3.75;;
8183;SDS011;4133;48.752;9.088;2022-08-26T00:15:56;4.60;;;4.20;;
8183;SDS011;4133;48.752;9.088;2022-08-26T00:18:22;4.35;;;3.95;;
8183;SDS011;4133;48.752;9.088;2022-08-26T00:20:48;5.60;;;4.05;;
8183;SDS011;4133;48.752;9.088;2022-08-26T00:23:15;4.50;;;3.83;;
8183;SDS011;4133;48.752;9.088;2022-08-26T00:25:42;4.65;;;4.15;;
8183;SDS011;4133;48.752;9.088;2022-08-26T00:28:08;4.55;;;4.15;;
8183;SDS011;4133;48.752;9.088;2022-08-26T00:30:34;3.67;;;3.38;;
8183;SDS011;4133;48.752;9.088;2022-08-26T00:33:01;5.10;;;4.30;;
8183;SDS011;4133;48.752;9.088;2022-08-26T00:35:28;5.07;;;4.22;;
8183;SDS011;4133;48.752;9.088;2022-08-26T00:37:54;4.28;;;3.88;;
8183;SDS011;4133;48.752;9.088;2022-08-26T00:40:22;4.07;;;3.37;;
8183;SDS011;4133;48.752;9.088;2022-08-26T00:42:48;4.70;;;4.20;;
8183;SDS011;4133;48.752;9.088;2022-08-26T00:45:15;4.30;;;3.90;;
8183;SDS011;4133;48.752;9.088;2022-08-26T00:47:48;4.63;;;3.88;;
8183;SDS011;4133;48.752;9.088;2022-08-26T00:50:16;4.68;;;4.28;;
8183;SDS011;4133;48.752;9.088;2022-08-26T00:52:43;4.50;;;4.10;;
8183;SDS011;4133;48.752;9.088;2022-08-26T00:55:20;4.68;;;4.28;;
8183;SDS011;4133;48.752;9.088;2022-08-26T00:57:48;4.72;;;4.32;;
8183;SDS011;4133;48.752;9.088;2022-08-26T01:00:17;4.30;;;3.90;;
8183;SDS011;4133;48.752;9.088;2022-08-26T01:02:43;5.13;;;4.63;;
8183;SDS011;4133;48.752;9.088;2022-08-26T01:05:10;4.33;;;3.93;;
8183;SDS011;4133;48.752;9.088;2022-08-26T01:07:36;4.50;;;4.10;;
8183;SDS011;4133;48.752;9.088;2022-08-26T01:10:05;4.60;;;4.05;;
8183;SDS011;4133;48.752;9.088;2022-08-26T01:12:32;4.40;;;4.00;;
8183;SDS011;4133;48.752;9.088;2022-08-26T01:14:59;4.37;;;3.77;;
8183;SDS011;4133;48.752;9.088;2022-08-26T01:17:26;4.93;;;4.23;;
8183;SDS011;4133;48.752;9.088;2022-08-26T01:19:55;3.90;;;3.60;;
8183;SDS011;4133;48.752;9.088;2022-08-26T01:22:23;4.37;;;3.97;;
8183;SDS011;4133;48.752;9.088;2022-08-26T01:24:50;4.60;;;4.20;;
8183;SDS011;4133;48.752;9.088;2022-08-26T01:27:17;4.37;;;4.00;;
8183;SDS011;4133;48.752;9.088;2022-08-26T01:29:44;4.50;;;4.10;;
8183;SDS011;4133;48.752;9.088;2022-08-26T01:32:13;4.22;;;3.90;;
8183;SDS011;4133;48.752;9.088;2022-08-26T01:34:40;4.60;;;4.20;;
8183;SDS011;4133;48.752;9.088;2022-08-26T01:39:35;6.03;;;4.40;;
8183;SDS011;4133;48.752;9.088;2022-08-26T01:42:03;5.65;;;4.15;;
8183;SDS011;4133;48.752;9.088;2022-08-26T01:44:31;4.37;;;3.97;;
8183;SDS011;4133;48.752;9.088;2022-08-26T01:47:00;4.50;;;4.10;;
8183;SDS011;4133;48.752;9.088;2022-08-26T01:49:26;4.43;;;4.03;;
8183;SDS011;4133;48.752;9.088;2022-08-26T01:51:54;4.80;;;4.40;;
8183;SDS011;4133;48.752;9.088;2022-08-26T01:54:20;5.40;;;4.60;;
8183;SDS011;4133;48.752;9.088;2022-08-26T01:56:47;5.05;;;4.55;;
8183;SDS011;4133;48.752;9.088;2022-08-26T01:59:14;4.80;;;4.40;;
8183;SDS011;4133;48.752;9.088;2022-08-26T02:01:41;4.60;;;4.20;;
8183;SDS011;4133;48.752;9.088;2022-08-26T02:04:09;4.68;;;4.25;;
8183;SDS011;4133;48.752;9.088;2022-08-26T02:06:37;4.63;;;4.10;;
8183;SDS011;4133;48.752;9.088;2022-08-26T02:09:04;4.38;;;3.97;;
8183;SDS011;4133;48.752;9.088;2022-08-26T02:11:30;4.83;;;4.30;;
8183;SDS011;4133;48.752;9.088;2022-08-26T02:13:58;4.95;;;4.45;;
8183;SDS011;4133;48.752;9.088;2022-08-26T02:16:27;4.45;;;3.88;;
8183;SDS011;4133;48.752;9.088;2022-08-26T02:18:53;4.73;;;4.23;;
8183;SDS011;4133;48.752;9.088;2022-08-26T02:21:20;5.53;;;5.00;;
8183;SDS011;4133;48.752;9.088;2022-08-26T02:23:46;5.00;;;4.50;;
8183;SDS011;4133;48.752;9.088;2022-08-26T02:26:17;5.53;;;4.77;;
8183;SDS011;4133;48.752;9.088;2022-08-26T02:28:47;4.53;;;4.13;;
8183;SDS011;4133;48.752;9.088;2022-08-26T02:31:14;4.65;;;4.25;;
8183;SDS011;4133;48.752;9.088;2022-08-26T02:33:40;4.78;;;4.38;;
8183;SDS011;4133;48.752;9.088;2022-08-26T02:36:06;4.57;;;4.00;;
8183;SDS011;4133;48.752;9.088;2022-08-26T02:38:32;4.70;;;4.30;;
8183;SDS011;4133;48.752;9.088;2022-08-26T02:40:58;5.10;;;4.50;;
8183;SDS011;4133;48.752;9.088;2022-08-26T02:43:24;4.90;;;4.50;;
8183;SDS011;4133;48.752;9.088;2022-08-26T02:45:50;4.80;;;4.40;;
8183;SDS011;4133;48.752;9.088;2022-08-26T02:48:17;4.70;;;4.13;;
8183;SDS011;4133;48.752;9.088;2022-08-26T02:50:45;4.73;;;4.33;;
8183;SDS011;4133;48.752;9.088;2022-08-26T02:53:11;4.67;;;4.23;;
8183;SDS011;4133;48.752;9.088;2022-08-26T02:55:37;4.67;;;4.27;;
8183;SDS011;4133;48.752;9.088;2022-08-26T02:58:06;5.10;;;4.70;;
8183;SDS011;4133;48.752;9.088;2022-08-26T03:00:34;5.53;;;4.87;;
8183;SDS011;4133;48.752;9.088;2022-08-26T03:03:00;5.17;;;4.60;;
8183;SDS011;4133;48.752;9.088;2022-08-26T03:08:29;5.20;;;4.67;;
8183;SDS011;4133;48.752;9.088;2022-08-26T03:10:55;7.07;;;5.00;;
8183;SDS011;4133;48.752;9.088;2022-08-26T03:13:21;4.97;;;4.47;;
8183;SDS011;4133;48.752;9.088;2022-08-26T03:15:47;4.60;;;4.20;;
8183;SDS011;4133;48.752;9.088;2022-08-26T03:18:13;4.70;;;4.30;;
8183;SDS011;4133;48.752;9.088;2022-08-26T03:20:40;4.93;;;4.43;;
8183;SDS011;4133;48.752;9.088;2022-08-26T03:23:06;5.63;;;4.40;;
8183;SDS011;4133;48.752;9.088;2022-08-26T03:25:32;5.33;;;4.57;;
8183;SDS011;4133;48.752;9.088;2022-08-26T03:27:58;4.60;;;4.20;;
8183;SDS011;4133;48.752;9.088;2022-08-26T03:30:24;4.80;;;4.40;;
8183;SDS011;4133;48.752;9.088;2022-08-26T03:33:06;5.30;;;4.80;;
8183;SDS011;4133;48.752;9.088;2022-08-26T03:35:32;5.50;;;4.47;;
8183;SDS011;4133;48.752;9.088;2022-08-26T03:37:59;7.93;;;5.00;;
8183;SDS011;4133;48.752;9.088;2022-08-26T03:43:29;5.10;;;4.60;;
8183;SDS011;4133;48.752;9.088;2022-08-26T03:45:55;6.30;;;4.63;;
8183;SDS011;4133;48.752;9.088;2022-08-26T03:48:21;5.30;;;4.80;;
8183;SDS011;4133;48.752;9.088;2022-08-26T03:53:50;6.50;;;4.70;;
8183;SDS011;4133;48.752;9.088;2022-08-26T03:56:17;5.33;;;4.83;;
8183;SDS011;4133;48.752;9.088;2022-08-26T03:58:43;5.80;;;5.20;;
8183;SDS011;4133;48.752;9.088;2022-08-26T04:01:12;5.37;;;4.87;;
8183;SDS011;4133;48.752;9.088;2022-08-26T04:03:39;4.77;;;4.37;;
8183;SDS011;4133;48.752;9.088;2022-08-26T04:06:27;5.10;;;4.67;;
8183;SDS011;4133;48.752;9.088;2022-08-26T04:08:54;5.07;;;4.63;;
8183;SDS011;4133;48.752;9.088;2022-08-26T04:11:21;4.50;;;4.10;;
8183;SDS011;4133;48.752;9.088;2022-08-26T04:13:48;4.80;;;4.40;;
8183;SDS011;4133;48.752;9.088;2022-08-26T04:16:14;4.90;;;4.50;;
8183;SDS011;4133;48.752;9.088;2022-08-26T04:18:41;5.73;;;4.67;;
8183;SDS011;4133;48.752;9.088;2022-08-26T04:21:07;5.70;;;5.03;;
8183;SDS011;4133;48.752;9.088;2022-08-26T04:23:34;5.00;;;4.50;;
8183;SDS011;4133;48.752;9.088;2022-08-26T04:26:00;5.40;;;4.80;;
8183;SDS011;4133;48.752;9.088;2022-08-26T04:28:27;6.37;;;5.00;;
8183;SDS011;4133;48.752;9.088;2022-08-26T04:30:53;4.90;;;4.40;;
8183;SDS011;4133;48.752;9.088;2022-08-26T04:33:19;5.23;;;4.73;;
8183;SDS011;4133;48.752;9.088;2022-08-26T04:35:46;5.20;;;4.70;;
8183;SDS011;4133;48.752;9.088;2022-08-26T04:38:12;6.30;;;4.70;;
8183;SDS011;4133;48.752;9.088;2022-08-26T04:40:47;5.20;;;4.70;;
8183;SDS011;4133;48.752;9.088;2022-08-26T04:43:13;5.30;;;4.80;;
8183;SDS011;4133;48.752;9.088;2022-08-26T04:45:39;5.45;;;4.80;;
8183;SDS011;4133;48.752;9.088;2022-08-26T04:48:06;5.93;;;4.80;;
8183;SDS011;4133;48.752;9.088;2022-08-26T04:50:34;6.20;;;5.10;;
8183;SDS011;4133;48.752;9.088;2022-08-26T04:53:00;6.20;;;4.70;;
8183;SDS011;4133;48.752;9.088;2022-08-26T04:55:26;5.90;;;4.73;;
8183;SDS011;4133;48.752;9.088;2022-08-26T04:57:52;5.90;;;5.30;;
8183;SDS011;4133;48.752;9.088;2022-08-26T05:00:19;7.00;;;5.10;;
8183;SDS011;4133;48.752;9.088;2022-08-26T05:02:46;5.40;;;4.90;;
8183;SDS011;4133;48.752;9.088;2022-08-26T05:05:12;5.83;;;5.13;;
8183;SDS011;4133;48.752;9.088;2022-08-26T05:07:38;5.37;;;4.87;;
8183;SDS011;4133;48.752;9.088;2022-08-26T05:10:05;5.27;;;4.77;;
8183;SDS011;4133;48.752;9.088;2022-08-26T05:12:31;5.03;;;4.60;;
8183;SDS011;4133;48.752;9.088;2022-08-26T05:14:57;5.23;;;4.50;;
8183;SDS011;4133;48.752;9.088;2022-08-26T05:17:23;5.47;;;4.97;;
8183;SDS011;4133;48.752;9.088;2022-08-26T05:19:51;5.20;;;4.80;;
8183;SDS011;4133;48.752;9.088;2022-08-26T05:22:20;5.33;;;4.83;;
8183;SDS011;4133;48.752;9.088;2022-08-26T05:24:47;5.57;;;5.07;;
8183;SDS011;4133;48.752;9.088;2022-08-26T05:27:40;5.10;;;4.70;;
8183;SDS011;4133;48.752;9.088;2022-08-26T05:30:12;5.47;;;4.97;;
8183;SDS011;4133;48.752;9.088;2022-08-26T05:32:38;5.13;;;4.70;;
8183;SDS011;4133;48.752;9.088;2022-08-26T05:35:04;6.25;;;4.88;;
8183;SDS011;4133;48.752;9.088;2022-08-26T05:37:31;5.17;;;4.63;;
8183;SDS011;4133;48.752;9.088;2022-08-26T05:39:57;4.78;;;4.38;;
8183;SDS011;4133;48.752;9.088;2022-08-26T05:42:23;6.30;;;5.70;;
8183;SDS011;4133;48.752;9.088;2022-08-26T05:44:52;5.70;;;5.10;;
8183;SDS011;4133;48.752;9.088;2022-08-26T05:47:18;5.50;;;5.00;;
8183;SDS011;4133;48.752;9.088;2022-08-26T05:49:44;5.63;;;5.00;;
8183;SDS011;4133;48.752;9.088;2022-08-26T05:52:10;5.07;;;4.67;;
8183;SDS011;4133;48.752;9.088;2022-08-26T05:54:37;5.20;;;4.70;;
8183;SDS011;4133;48.752;9.088;2022-08-26T05:57:06;5.17;;;4.60;;
8183;SDS011;4133;48.752;9.088;2022-08-26T05:59:32;5.00;;;4.60;;
8183;SDS011;4133;48.752;9.088;2022-08-26T06:01:58;5.50;;;5.00;;
8183;SDS011;4133;48.752;9.088;2022-08-26T06:04:24;5.03;;;4.53;;
8183;SDS011;4133;48.752;9.088;2022-08-26T06:06:50;5.63;;;5.13;;
8183;SDS011;4133;48.752;9.088;2022-08-26T06:09:16;5.03;;;4.63;;
8183;SDS011;4133;48.752;9.088;2022-08-26T06:11:42;6.30;;;5.00;;
8183;SDS011;4133;48.752;9.088;2022-08-26T06:14:08;5.75;;;5.25;;
8183;SDS011;4133;48.752;9.088;2022-08-26T06:16:38;5.30;;;4.80;;
8183;SDS011;4133;48.752;9.088;2022-08-26T06:19:05;5.73;;;5.00;;
8183;SDS011;4133;48.752;9.088;2022-08-26T06:21:32;6.37;;;4.77;;
8183;SDS011;4133;48.752;9.088;2022-08-26T06:24:00;5.17;;;4.73;;
8183;SDS011;4133;48.752;9.088;2022-08-26T06:26:47;5.95;;;5.18;;
8183;SDS011;4133;48.752;9.088;2022-08-26T06:29:13;6.00;;;5.40;;
8183;SDS011;4133;48.752;9.088;2022-08-26T06:31:39;7.78;;;5.43;;
8183;SDS011;4133;48.752;9.088;2022-08-26T06:34:08;5.73;;;5.00;;
8183;SDS011;4133;48.752;9.088;2022-08-26T06:36:34;6.67;;;4.97;;
8183;SDS011;4133;48.752;9.088;2022-08-26T06:39:02;5.32;;;4.82;;
8183;SDS011;4133;48.752;9.088;2022-08-26T06:41:28;10.48;;;5.07;;
8183;SDS011;4133;48.752;9.088;2022-08-26T06:43:56;5.32;;;4.72;;
8183;SDS011;4133;48.752;9.088;2022-08-26T06:46:25;4.97;;;4.47;;
8183;SDS011;4133;48.752;9.088;2022-08-26T06:48:52;5.03;;;4.23;;
8183;SDS011;4133;48.752;9.088;2022-08-26T06:51:19;4.80;;;4.32;;
8183;SDS011;4133;48.752;9.088;2022-08-26T06:53:49;4.30;;;3.90;;
8183;SDS011;4133;48.752;9.088;2022-08-26T06:56:21;4.53;;;4.13;;
8183;SDS011;4133;48.752;9.088;2022-08-26T06:58:51;4.68;;;4.28;;
8183;SDS011;4133;48.752;9.088;2022-08-26T07:01:18;4.63;;;4.22;;
8183;SDS011;4133;48.752;9.088;2022-08-26T07:03:46;4.63;;;4.18;;
8183;SDS011;4133;48.752;9.088;2022-08-26T07:06:12;4.70;;;3.80;;
8183;SDS011;4133;48.752;9.088;2022-08-26T07:08:39;4.30;;;4.00;;
8183;SDS011;4133;48.752;9.088;2022-08-26T07:11:07;6.63;;;4.00;;
8183;SDS011;4133;48.752;9.088;2022-08-26T07:13:33;6.68;;;4.00;;
8183;SDS011;4133;48.752;9.088;2022-08-26T07:16:02;5.53;;;3.80;;
8183;SDS011;4133;48.752;9.088;2022-08-26T07:18:28;3.55;;;3.25;;
8183;SDS011;4133;48.752;9.088;2022-08-26T07:20:54;6.32;;;3.83;;
8183;SDS011;4133;48.752;9.088;2022-08-26T07:23:26;6.20;;;3.67;;
8183;SDS011;4133;48.752;9.088;2022-08-26T07:25:52;4.53;;;4.13;;
8183;SDS011;4133;48.752;9.088;2022-08-26T07:28:18;5.65;;;3.88;;
8183;SDS011;4133;48.752;9.088;2022-08-26T07:30:44;5.28;;;4.10;;
8183;SDS011;4133;48.752;9.088;2022-08-26T07:33:13;4.07;;;3.50;;
8183;SDS011;4133;48.752;9.088;2022-08-26T07:35:39;4.88;;;3.00;;
8183;SDS011;4133;48.752;9.088;2022-08-26T07:38:05;3.00;;;2.80;;
8183;SDS011;4133;48.752;9.088;2022-08-26T07:40:31;4.45;;;3.30;;
8183;SDS011;4133;48.752;9.088;2022-08-26T07:42:57;3.10;;;2.90;;
8183;SDS011;4133;48.752;9.088;2022-08-26T07:45:24;3.28;;;2.90;;
8183;SDS011;4133;48.752;9.088;2022-08-26T07:47:50;4.55;;;2.83;;
8183;SDS011;4133;48.752;9.088;2022-08-26T07:50:16;4.70;;;2.70;;
8183;SDS011;4133;48.752;9.088;2022-08-26T07:52:43;3.13;;;2.83;;
8183;SDS011;4133;48.752;9.088;2022-08-26T07:55:09;3.83;;;3.00;;
8183;SDS011;4133;48.752;9.088;2022-08-26T07:57:35;3.13;;;2.83;;
8183;SDS011;4133;48.752;9.088;2022-08-26T08:00:03;3.85;;;2.97;;
8183;SDS011;4133;48.752;9.088;2022-08-26T08:02:30;6.50;;;2.70;;
8183;SDS011;4133;48.752;9.088;2022-08-26T08:04:57;4.03;;;3.03;;
8183;SDS011;4133;48.752;9.088;2022-08-26T08:07:26;3.45;;;2.63;;
8183;SDS011;4133;48.752;9.088;2022-08-26T08:09:52;4.00;;;2.90;;
8183;SDS011;4133;48.752;9.088;2022-08-26T08:12:18;6.75;;;2.78;;
8183;SDS011;4133;48.752;9.088;2022-08-26T08:14:44;4.20;;;2.75;;
8183;SDS011;4133;48.752;9.088;2022-08-26T08:17:11;3.00;;;2.50;;
8183;SDS011;4133;48.752;9.088;2022-08-26T08:19:38;3.00;;;2.70;;
8183;SDS011;4133;48.752;9.088;2022-08-26T08:22:04;3.67;;;2.85;;
8183;SDS011;4133;48.752;9.088;2022-08-26T08:24:30;3.20;;;2.78;;
8183;SDS011;4133;48.752;9.088;2022-08-26T08:27:00;2.80;;;2.60;;
8183;SDS011;4133;48.752;9.088;2022-08-26T08:29:26;3.47;;;2.50;;
8183;SDS011;4133;48.752;9.088;2022-08-26T08:31:53;2.78;;;2.58;;
8183;SDS011;4133;48.752;9.088;2022-08-26T08:34:19;3.72;;;2.80;;
8183;SDS011;4133;48.752;9.088;2022-08-26T08:36:45;3.75;;;2.75;;
8183;SDS011;4133;48.752;9.088;2022-08-26T08:39:12;4.40;;;2.83;;
8183;SDS011;4133;48.752;9.088;2022-08-26T08:41:40;5.70;;;2.72;;
8183;SDS011;4133;48.752;9.088;2022-08-26T08:44:12;3.67;;;2.80;;
8183;SDS011;4133;48.752;9.088;2022-08-26T08:46:42;7.15;;;3.00;;
8183;SDS011;4133;48.752;9.088;2022-08-26T08:49:09;3.80;;;2.85;;
8183;SDS011;4133;48.752;9.088;2022-08-26T08:52:36;6.57;;;3.00;;
8183;SDS011;4133;48.752;9.088;2022-08-26T08:54:31;3.42;;;2.97;;
8183;SDS011;4133;48.752;9.088;2022-08-26T08:59:24;6.55;;;3.30;;
8183;SDS011;4133;48.752;9.088;2022-08-26T09:06:58;7.57;;;3.40;;
8183;SDS011;4133;48.752;9.088;2022-08-26T09:09:28;6.82;;;3.35;;
8183;SDS011;4133;48.752;9.088;2022-08-26T09:11:55;5.10;;;3.33;;
8183;SDS011;4133;48.752;9.088;2022-08-26T09:14:22;7.20;;;3.72;;
8183;SDS011;4133;48.752;9.088;2022-08-26T09:17:38;7.30;;;3.80;;
8183;SDS011;4133;48.752;9.088;2022-08-26T09:19:38;4.72;;;3.50;;
8183;SDS011;4133;48.752;9.088;2022-08-26T09:22:05;6.13;;;3.88;;
8183;SDS011;4133;48.752;9.088;2022-08-26T09:24:32;7.60;;;3.53;;
8183;SDS011;4133;48.752;9.088;2022-08-26T09:26:59;5.78;;;3.70;;
8183;SDS011;4133;48.752;9.088;2022-08-26T09:29:26;9.55;;;4.30;;
8183;SDS011;4133;48.752;9.088;2022-08-26T09:34:51;10.48;;;4.28;;
8183;SDS011;4133;48.752;9.088;2022-08-26T09:37:25;5.32;;;4.22;;
8183;SDS011;4133;48.752;9.088;2022-08-26T09:40:10;7.30;;;4.05;;
8183;SDS011;4133;48.752;9.088;2022-08-26T09:42:38;8.05;;;4.10;;
8183;SDS011;4133;48.752;9.088;2022-08-26T09:45:05;7.03;;;4.05;;
8183;SDS011;4133;48.752;9.088;2022-08-26T09:47:38;10.75;;;4.72;;
8183;SDS011;4133;48.752;9.088;2022-08-26T09:55:35;8.77;;;4.55;;
8183;SDS011;4133;48.752;9.088;2022-08-26T09:58:02;6.68;;;4.13;;
8183;SDS011;4133;48.752;9.088;2022-08-26T10:00:33;9.32;;;4.65;;
8183;SDS011;4133;48.752;9.088;2022-08-26T10:03:00;7.47;;;4.80;;
8183;SDS011;4133;48.752;9.088;2022-08-26T10:05:31;9.82;;;4.30;;
8183;SDS011;4133;48.752;9.088;2022-08-26T10:07:59;10.80;;;4.15;;
8183;SDS011;4133;48.752;9.088;2022-08-26T10:10:39;8.38;;;4.30;;
8183;SDS011;4133;48.752;9.088;2022-08-26T10:13:16;9.48;;;4.65;;
8183;SDS011;4133;48.752;9.088;2022-08-26T10:15:45;14.60;;;4.40;;
8183;SDS011;4133;48.752;9.088;2022-08-26T10:18:13;7.90;;;3.95;;
8183;SDS011;4133;48.752;9.088;2022-08-26T10:20:43;10.88;;;4.60;;
8183;SDS011;4133;48.752;9.088;2022-08-26T10:23:18;9.80;;;4.40;;
8183;SDS011;4133;48.752;9.088;2022-08-26T10:25:46;7.05;;;3.92;;
8183;SDS011;4133;48.752;9.088;2022-08-26T10:28:19;10.10;;;4.70;;
8183;SDS011;4133;48.752;9.088;2022-08-26T10:30:55;9.50;;;4.30;;
8183;SDS011;4133;48.752;9.088;2022-08-26T10:33:22;5.88;;;3.95;;
8183;SDS011;4133;48.752;9.088;2022-08-26T10:35:56;6.97;;;4.10;;
8183;SDS011;4133;48.752;9.088;2022-08-26T10:38:28;8.85;;;4.25;;
8183;SDS011;4133;48.752;9.088;2022-08-26T10:43:28;9.00;;;4.55;;
8183;SDS011;4133;48.752;9.088;2022-08-26T10:46:00;9.75;;;4.50;;
8183;SDS011;4133;48.752;9.088;2022-08-26T10:50:56;12.20;;;4.22;;
8183;SDS011;4133;48.752;9.088;2022-08-26T10:53:30;8.23;;;3.83;;
8183;SDS011;4133;48.752;9.088;2022-08-26T11:06:33;6.82;;;4.25;;
8183;SDS011;4133;48.752;9.088;2022-08-26T11:09:01;5.85;;;3.97;;
8183;SDS011;4133;48.752;9.088;2022-08-26T11:14:07;6.78;;;4.07;;
8183;SDS011;4133;48.752;9.088;2022-08-26T11:16:34;6.85;;;3.90;;
8183;SDS011;4133;48.752;9.088;2022-08-26T11:19:01;8.73;;;4.07;;
8183;SDS011;4133;48.752;9.088;2022-08-26T11:21:46;8.40;;;3.88;;
8183;SDS011;4133;48.752;9.088;2022-08-26T11:26:58;8.07;;;3.85;;
8183;SDS011;4133;48.752;9.088;2022-08-26T11:32:22;7.70;;;4.07;;
8183;SDS011;4133;48.752;9.088;2022-08-26T11:34:49;10.50;;;4.05;;
8183;SDS011;4133;48.752;9.088;2022-08-26T11:37:16;9.27;;;3.92;;
8183;SDS011;4133;48.752;9.088;2022-08-26T11:39:46;8.02;;;3.92;;
8183;SDS011;4133;48.752;9.088;2022-08-26T11:47:44;7.90;;;3.60;;
8183;SDS011;4133;48.752;9.088;2022-08-26T11:52:49;4.80;;;3.67;;
8183;SDS011;4133;48.752;9.088;2022-08-26T11:55:22;6.97;;;3.55;;
8183;SDS011;4133;48.752;9.088;2022-08-26T11:57:50;8.00;;;3.67;;
8183;SDS011;4133;48.752;9.088;2022-08-26T12:00:24;5.05;;;2.88;;
8183;SDS011;4133;48.752;9.088;2022-08-26T12:02:50;8.18;;;3.60;;
8183;SDS011;4133;48.752;9.088;2022-08-26T12:05:28;11.43;;;3.30;;
8183;SDS011;4133;48.752;9.088;2022-08-26T12:07:55;5.20;;;3.10;;
8183;SDS011;4133;48.752;9.088;2022-08-26T12:10:26;9.02;;;3.35;;
8183;SDS011;4133;48.752;9.088;2022-08-26T12:12:58;8.85;;;3.10;;
8183;SDS011;4133;48.752;9.088;2022-08-26T12:15:24;5.25;;;3.08;;
8183;SDS011;4133;48.752;9.088;2022-08-26T12:17:51;7.07;;;3.15;;
8183;SDS011;4133;48.752;9.088;2022-08-26T12:20:43;7.43;;;3.50;;
8183;SDS011;4133;48.752;9.088;2022-08-26T12:23:43;4.75;;;3.38;;
8183;SDS011;4133;48.752;9.088;2022-08-26T12:26:30;5.05;;;3.15;;
8183;SDS011;4133;48.752;9.088;2022-08-26T12:31:43;10.38;;;3.13;;
8183;SDS011;4133;48.752;9.088;2022-08-26T12:34:10;5.15;;;2.92;;
8183;SDS011;4133;48.752;9.088;2022-08-26T12:36:58;6.32;;;3.15;;
8183;SDS011;4133;48.752;9.088;2022-08-26T12:39:30;9.35;;;3.90;;
8183;SDS011;4133;48.752;9.088;2022-08-26T12:41:58;6.40;;;3.75;;
8183;SDS011;4133;48.752;9.088;2022-08-26T12:47:07;8.65;;;3.60;;
8183;SDS011;4133;48.752;9.088;2022-08-26T12:49:37;6.85;;;3.25;;
8183;SDS011;4133;48.752;9.088;2022-08-26T12:52:05;6.07;;;2.85;;
8183;SDS011;4133;48.752;9.088;2022-08-26T12:54:32;5.10;;;3.17;;
8183;SDS011;4133;48.752;9.088;2022-08-26T12:57:17;5.93;;;3.30;;
8183;SDS011;4133;48.752;9.088;2022-08-26T12:59:49;6.45;;;3.20;;
8183;SDS011;4133;48.752;9.088;2022-08-26T13:05:19;5.00;;;3.40;;
8183;SDS011;4133;48.752;9.088;2022-08-26T13:08:06;4.85;;;2.72;;
8183;SDS011;4133;48.752;9.088;2022-08-26T13:10:37;3.47;;;2.58;;
8183;SDS011;4133;48.752;9.088;2022-08-26T13:13:03;7.95;;;3.83;;
8183;SDS011;4133;48.752;9.088;2022-08-26T13:15:29;7.10;;;3.67;;
8183;SDS011;4133;48.752;9.088;2022-08-26T13:17:55;7.80;;;3.65;;
8183;SDS011;4133;48.752;9.088;2022-08-26T13:20:21;6.75;;;3.20;;
8183;SDS011;4133;48.752;9.088;2022-08-26T13:22:48;5.28;;;2.92;;
8183;SDS011;4133;48.752;9.088;2022-08-26T13:25:15;11.20;;;3.63;;
8183;SDS011;4133;48.752;9.088;2022-08-26T13:27:42;13.23;;;4.07;;
8183;SDS011;4133;48.752;9.088;2022-08-26T13:30:11;16.27;;;4.47;;
8183;SDS011;4133;48.752;9.088;2022-08-26T13:32:37;12.25;;;4.10;;
8183;SDS011;4133;48.752;9.088;2022-08-26T13:35:03;10.32;;;4.32;;
8183;SDS011;4133;48.752;9.088;2022-08-26T13:37:30;10.88;;;4.68;;
8183;SDS011;4133;48.752;9.088;2022-08-26T13:40:04;14.55;;;4.85;;
8183;SDS011;4133;48.752;9.088;2022-08-26T13:42:31;9.73;;;4.80;;
8183;SDS011;4133;48.752;9.088;2022-08-26T13:45:00;16.52;;;4.85;;
8183;SDS011;4133;48.752;9.088;2022-08-26T13:47:26;9.50;;;4.45;;
8183;SDS011;4133;48.752;9.088;2022-08-26T13:49:52;12.73;;;4.90;;
8183;SDS011;4133;48.752;9.088;2022-08-26T13:52:19;13.27;;;4.43;;
8183;SDS011;4133;48.752;9.088;2022-08-26T13:54:45;14.45;;;5.05;;
8183;SDS011;4133;48.752;9.088;2022-08-26T13:57:11;14.60;;;5.00;;
8183;SDS011;4133;48.752;9.088;2022-08-26T13:59:37;16.27;;;4.88;;
8183;SDS011;4133;48.752;9.088;2022-08-26T14:02:03;16.60;;;5.30;;
8183;SDS011;4133;48.752;9.088;2022-08-26T14:04:33;9.15;;;4.72;;
8183;SDS011;4133;48.752;9.088;2022-08-26T14:06:59;10.05;;;5.00;;
8183;SDS011;4133;48.752;9.088;2022-08-26T14:09:25;11.27;;;4.70;;
8183;SDS011;4133;48.752;9.088;2022-08-26T14:11:51;15.57;;;4.65;;
8183;SDS011;4133;48.752;9.088;2022-08-26T14:14:17;10.07;;;5.03;;
8183;SDS011;4133;48.752;9.088;2022-08-26T14:16:43;9.88;;;5.15;;
8183;SDS011;4133;48.752;9.088;2022-08-26T14:19:09;10.00;;;4.88;;
8183;SDS011;4133;48.752;9.088;2022-08-26T14:21:36;10.52;;;4.78;;
8183;SDS011;4133;48.752;9.088;2022-08-26T14:24:03;10.98;;;5.07;;
8183;SDS011;4133;48.752;9.088;2022-08-26T14:26:30;13.77;;;4.97;;
8183;SDS011;4133;48.752;9.088;2022-08-26T14:31:32;9.35;;;4.53;;
8183;SDS011;4133;48.752;9.088;2022-08-26T14:34:03;12.55;;;4.65;;
8183;SDS011;4133;48.752;9.088;2022-08-26T14:36:30;9.98;;;4.72;;
8183;SDS011;4133;48.752;9.088;2022-08-26T14:38:58;12.02;;;5.07;;
8183;SDS011;4133;48.752;9.088;2022-08-26T14:41:25;11.70;;;4.63;;
8183;SDS011;4133;48.752;9.088;2022-08-26T14:43:56;10.88;;;4.65;;
8183;SDS011;4133;48.752;9.088;2022-08-26T14:46:24;7.03;;;4.70;;
8183;SDS011;4133;48.752;9.088;2022-08-26T14:48:52;9.23;;;5.10;;
8183;SDS011;4133;48.752;9.088;2022-08-26T14:51:18;9.27;;;4.35;;
8183;SDS011;4133;48.752;9.088;2022-08-26T14:53:45;10.35;;;4.72;;
8183;SDS011;4133;48.752;9.088;2022-08-26T14:56:31;9.27;;;4.57;;
8183;SDS011;4133;48.752;9.088;2022-08-26T14:58:57;10.98;;;4.80;;
8183;SDS011;4133;48.752;9.088;2022-08-26T15:01:23;9.07;;;4.47;;
8183;SDS011;4133;48.752;9.088;2022-08-26T15:03:49;9.70;;;4.28;;
8183;SDS011;4133;48.752;9.088;2022-08-26T15:06:15;6.40;;;3.95;;
8183;SDS011;4133;48.752;9.088;2022-08-26T15:08:42;8.55;;;3.90;;
8183;SDS011;4133;48.752;9.088;2022-08-26T15:11:08;10.63;;;4.07;;
8183;SDS011;4133;48.752;9.088;2022-08-26T15:13:34;8.40;;;3.70;;
8183;SDS011;4133;48.752;9.088;2022-08-26T15:16:01;7.95;;;3.95;;
8183;SDS011;4133;48.752;9.088;2022-08-26T15:18:27;6.80;;;3.47;;
8183;SDS011;4133;48.752;9.088;2022-08-26T15:20:53;7.88;;;3.65;;
8183;SDS011;4133;48.752;9.088;2022-08-26T15:23:19;9.10;;;4.00;;
8183;SDS011;4133;48.752;9.088;2022-08-26T15:25:45;6.07;;;3.70;;
8183;SDS011;4133;48.752;9.088;2022-08-26T15:28:12;6.13;;;3.40;;
8183;SDS011;4133;48.752;9.088;2022-08-26T15:30:38;7.78;;;4.40;;
8183;SDS011;4133;48.752;9.088;2022-08-26T15:33:04;8.25;;;3.72;;
8183;SDS011;4133;48.752;9.088;2022-08-26T15:35:30;9.40;;;3.92;;
8183;SDS011;4133;48.752;9.088;2022-08-26T15:37:56;7.38;;;3.72;;
8183;SDS011;4133;48.752;9.088;2022-08-26T15:40:23;5.85;;;4.05;;
8183;SDS011;4133;48.752;9.088;2022-08-26T15:42:50;9.82;;;3.90;;
8183;SDS011;4133;48.752;9.088;2022-08-26T15:45:16;5.50;;;3.40;;
8183;SDS011;4133;48.752;9.088;2022-08-26T15:47:42;5.57;;;3.50;;
8183;SDS011;4133;48.752;9.088;2022-08-26T15:50:08;7.70;;;4.03;;
8183;SDS011;4133;48.752;9.088;2022-08-26T15:52:34;6.78;;;3.85;;
8183;SDS011;4133;48.752;9.088;2022-08-26T15:55:02;6.18;;;4.07;;
8183;SDS011;4133;48.752;9.088;2022-08-26T15:57:28;8.13;;;4.28;;
8183;SDS011;4133;48.752;9.088;2022-08-26T15:59:54;9.65;;;4.85;;
8183;SDS011;4133;48.752;9.088;2022-08-26T16:02:20;11.68;;;5.30;;
8183;SDS011;4133;48.752;9.088;2022-08-26T16:04:49;7.85;;;5.00;;
8183;SDS011;4133;48.752;9.088;2022-08-26T16:07:15;8.73;;;5.68;;
8183;SDS011;4133;48.752;9.088;2022-08-26T16:09:41;9.00;;;5.35;;
8183;SDS011;4133;48.752;9.088;2022-08-26T16:12:07;7.03;;;5.20;;
8183;SDS011;4133;48.752;9.088;2022-08-26T16:14:33;9.05;;;5.40;;
8183;SDS011;4133;48.752;9.088;2022-08-26T16:16:59;9.10;;;5.85;;
8183;SDS011;4133;48.752;9.088;2022-08-26T16:19:25;8.52;;;5.47;;
8183;SDS011;4133;48.752;9.088;2022-08-26T16:21:51;7.60;;;5.03;;
8183;SDS011;4133;48.752;9.088;2022-08-26T16:24:18;8.52;;;5.78;;
8183;SDS011;4133;48.752;9.088;2022-08-26T16:26:46;9.45;;;5.53;;
8183;SDS011;4133;48.752;9.088;2022-08-26T16:29:13;10.02;;;5.38;;
8183;SDS011;4133;48.752;9.088;2022-08-26T16:31:39;8.27;;;5.82;;